KMGM

Montgomery Regional (Dannelly Field) Airport

Montgomery, Alabama, USA
METAR KMGM 141332Z 00000KT 7SM OVC005 25/23 A3005 RMK AO2 T02500233
Observed Flight Rules
Aug-14 @ 13:32 UTC (10 minutes ago) Instrument Flight Rules
Visibility Clouds
7 miles
  • Overcast at 500' AGL
Temperatures Readings
Current 25°C / 77°F
Dewpoint 23°C / 73°F
Humidity 89%
Altimeter 30.05" Hg
Pressure 1018 hPa
Elevation 63
METAR KMGM 141332Z 00000KT 7SM OVC005 25/23 A3005 RMK AO2 T02500233
Observed Flight Rules
Aug-14 @ 13:32 UTC
(10 minutes ago)
IFR
Clouds
  • Overcast at 500' AGL
Temperature Dewpoint
25°C / 77°F 23°C / 73°F
Humidity Altimeter Pressure
89% 30.05" Hg 1018 hPa